Bourbon Peridot — C6DG9 — position and weather

sailwx.info

Track history (hours):
 
Tides and Currents Weather Stations Pressure Air Temp Water Temp Dewpoint Dewpoint Depression Visibility Wind Speed Wind Dir Waves Ship Positions

Bourbon Peridot

Last reported at 2017-Oct-19 15:31 UTC. Time now 2017-Nov-22 03:42 UTC.
Position N 04°28' W 002°36'.
Warning: this ship's position is 33 days out of date.

Length 91 m; draft 5.8 m.

Type: Other ship. MMSI: 311000672.

Date/timePositionNaut miles runAvg speedWind from/ knotsBaromVisibWave heightAir tempDewpointWater temp
2017-Oct-19 15:31N 04°28' W 002°36'0 0.0
2017-Oct-19 15:29N 04°28' W 002°36'0 0.0
2017-Oct-19 15:00N 04°28' W 002°36'0 0.0
2017-Oct-19 14:30N 04°28' W 002°36'0 0.0
2017-Oct-19 14:00N 04°28' W 002°36'0 0.0
2017-Oct-19 13:30N 04°28' W 002°36'0 0.0
2017-Oct-19 12:59N 04°28' W 002°36'0 0.1
2017-Oct-19 12:29N 04°29' W 002°36'0 0.0
2017-Oct-19 12:00N 04°29' W 002°36'1 2.7
2017-Oct-19 11:29N 04°28' W 002°35'  
2017-Oct-17 00:24N 04°30' W 002°09'13 8.6
2017-Oct-16 22:53N 04°30' W 001°56'3 8.6
2017-Oct-16 22:30N 04°30' W 001°53'4 8.6
2017-Oct-16 22:00N 04°30' W 001°48'4 8.4
2017-Oct-16 21:30N 04°31' W 001°44'4 8.6
2017-Oct-16 20:59N 04°34' W 001°41'4 8.7
2017-Oct-16 20:29N 04°38' W 001°40'4 8.9
2017-Oct-16 19:59N 04°43' W 001°39'4 8.9
2017-Oct-16 19:30N 04°47' W 001°39'4 8.9
2017-Oct-16 19:00N 04°51' W 001°39'4 8.6
2017-Oct-16 18:30N 04°56' W 001°40'2 3.8
2017-Oct-16 17:59N 04°56' W 001°42'0 0.1
2017-Oct-16 17:28N 04°56' W 001°42'0 0.0
2017-Oct-16 16:58N 04°56' W 001°42'0 0.0
2017-Oct-16 16:28N 04°56' W 001°42'0 0.0
2017-Oct-16 15:58N 04°56' W 001°42'0 0.0
2017-Oct-16 15:28N 04°56' W 001°42'0 0.0
2017-Oct-16 14:58N 04°56' W 001°42'0 0.0
2017-Oct-16 13:58N 04°56' W 001°42'0 0.0
2017-Oct-16 13:25N 04°56' W 001°42'0 0.0
2017-Oct-16 12:55N 04°56' W 001°42'0 0.0
2017-Oct-16 12:28N 04°56' W 001°42'0 0.0
2017-Oct-16 11:58N 04°56' W 001°42'0 0.0
2017-Oct-16 11:28N 04°56' W 001°42'0 0.0
2017-Oct-16 10:58N 04°56' W 001°42'0 0.0
2017-Oct-16 10:28N 04°56' W 001°42'0 0.0
2017-Oct-16 09:58N 04°56' W 001°42'0 0.0
2017-Oct-16 09:28N 04°56' W 001°42'0 0.0
2017-Oct-16 08:58N 04°56' W 001°42'31 1.0
2017-Oct-15 01:38N 04°30' W 001°59'2 9.8
2017-Oct-15 01:29N 04°30' W 002°00'5 9.7
2017-Oct-15 00:59N 04°30' W 002°05'5 9.6
2017-Oct-15 00:29N 04°30' W 002°10'4 8.2
2017-Oct-15 00:00N 04°29' W 002°14'4 7.1
2017-Oct-14 23:30N 04°29' W 002°17'5 9.3
2017-Oct-14 22:59N 04°30' W 002°22'4 8.7
2017-Oct-14 22:29N 04°30' W 002°26'510.0
2017-Oct-14 22:00N 04°27' W 002°31'4 7.9
2017-Oct-14 21:30N 04°28' W 002°34'1 1.8
2017-Oct-14 20:59N 04°29' W 002°35'0 0.1
2017-Oct-14 20:29N 04°29' W 002°35'0 0.0
2017-Oct-14 19:59N 04°29' W 002°35'0 0.3
2017-Oct-14 19:30N 04°29' W 002°35'0 0.3
2017-Oct-14 19:00N 04°29' W 002°35'0 0.3
2017-Oct-14 18:30N 04°29' W 002°34'0 0.2
2017-Oct-14 17:59N 04°29' W 002°34'0 0.0
2017-Oct-14 17:29N 04°29' W 002°34'0 0.2
2017-Oct-14 16:59N 04°29' W 002°34'0 0.5
2017-Oct-14 16:28N 04°29' W 002°34'1 1.9
2017-Oct-14 16:00N 04°28' W 002°33'0 0.3
2017-Oct-14 15:30N 04°28' W 002°33'0 0.1
2017-Oct-14 15:00N 04°28' W 002°33'0 0.4
2017-Oct-14 14:29N 04°28' W 002°33'0 0.3
2017-Oct-14 13:59N 04°28' W 002°34'1 1.2
2017-Oct-14 13:30N 04°27' W 002°34'0 0.0
2017-Oct-14 13:00N 04°27' W 002°34'0 0.0
2017-Oct-14 12:29N 04°27' W 002°34'0 0.4
2017-Oct-14 11:59N 04°27' W 002°34'0 0.2
2017-Oct-14 11:29N 04°27' W 002°33'0 0.1
2017-Oct-14 11:00N 04°27' W 002°33'0 0.2
2017-Oct-14 10:30N 04°27' W 002°33'0 0.2
2017-Oct-14 09:59N 04°27' W 002°33'0 0.3
2017-Oct-14 09:29N 04°27' W 002°33'0 0.2
2017-Oct-14 08:59N 04°27' W 002°33'1 1.3
2017-Oct-14 08:30N 04°27' W 002°33'1 1.5
2017-Oct-14 08:00N 04°28' W 002°33'0 0.0
2017-Oct-14 07:29N 04°28' W 002°33'0 0.3
2017-Oct-14 06:59N 04°28' W 002°33'0 0.3
2017-Oct-14 06:29N 04°28' W 002°33'0 0.3
2017-Oct-14 06:00N 04°28' W 002°33'0 0.1
2017-Oct-14 05:30N 04°28' W 002°33'1 1.5
2017-Oct-14 05:00N 04°29' W 002°33'2 4.1
2017-Oct-14 04:29N 04°28' W 002°35'0 0.1
2017-Oct-14 03:59N 04°28' W 002°35'0 0.1
2017-Oct-14 03:30N 04°28' W 002°35'0 0.1
2017-Oct-14 03:00N 04°28' W 002°35'0 0.2
2017-Oct-14 02:29N 04°28' W 002°34'0 0.2
2017-Oct-14 02:00N 04°28' W 002°34'0 0.1
2017-Oct-14 01:30N 04°28' W 002°34'0 0.1
2017-Oct-14 01:00N 04°28' W 002°34'0 0.1
2017-Oct-14 00:29N 04°28' W 002°34'0 0.0
2017-Oct-13 23:59N 04°28' W 002°34'0 0.1
2017-Oct-13 23:30N 04°28' W 002°34'0 0.0
2017-Oct-13 22:59N 04°28' W 002°34'0 0.5
2017-Oct-13 22:29N 04°28' W 002°34'0 0.8
2017-Oct-13 21:59N 04°29' W 002°34'0 0.0
2017-Oct-13 21:30N 04°29' W 002°34'0 0.1
2017-Oct-13 20:59N 04°29' W 002°34'0 0.1
2017-Oct-13 20:29N 04°29' W 002°34'0 0.3
2017-Oct-13 19:59N 04°29' W 002°34'0 0.2
2017-Oct-13 19:30N 04°29' W 002°34'0 0.0
2017-Oct-13 19:00N 04°29' W 002°34'0 0.1
2017-Oct-13 18:30N 04°29' W 002°34'0 0.1
2017-Oct-13 18:00N 04°29' W 002°34'0 0.1
2017-Oct-13 17:29N 04°29' W 002°34'2 3.1
2017-Oct-13 16:59N 04°27' W 002°33'1 2.0
2017-Oct-13 16:30N 04°26' W 002°33'0 0.0
2017-Oct-13 15:59N 04°26' W 002°33'0 0.0
2017-Oct-13 15:29N 04°26' W 002°33'0 0.0
2017-Oct-13 14:59N 04°26' W 002°33'0 0.0
2017-Oct-13 14:30N 04°26' W 002°33'0 0.1
2017-Oct-13 14:00N 04°26' W 002°33'2 3.1
2017-Oct-13 13:30N 04°28' W 002°32'1 2.9
2017-Oct-13 12:59N 04°29' W 002°32'1 1.8
2017-Oct-13 12:29N 04°30' W 002°32'0 0.0
2017-Oct-13 12:00N 04°30' W 002°32'0 0.1
2017-Oct-13 11:30N 04°30' W 002°32'0 0.0
2017-Oct-13 10:59N 04°30' W 002°32'0 0.1
2017-Oct-13 10:29N 04°30' W 002°32'0 0.3
2017-Oct-13 09:59N 04°30' W 002°31'0 0.1
2017-Oct-13 09:30N 04°30' W 002°31'0 0.1
2017-Oct-13 09:00N 04°30' W 002°31'0 0.2
2017-Oct-13 08:29N 04°29' W 002°31'0 0.1
2017-Oct-13 07:59N 04°29' W 002°31'0 0.1
2017-Oct-13 07:30N 04°29' W 002°31'2 3.8
2017-Oct-13 07:00N 04°29' W 002°30'1 2.8
2017-Oct-13 06:29N 04°28' W 002°29'0 0.1
2017-Oct-13 05:59N 04°27' W 002°29'0 0.2
2017-Oct-13 05:30N 04°28' W 002°29'0 0.1
2017-Oct-13 05:00N 04°28' W 002°29'0 0.2
2017-Oct-13 04:30N 04°27' W 002°29'0 0.2
2017-Oct-13 03:59N 04°27' W 002°29'0 0.3
2017-Oct-13 03:30N 04°27' W 002°29'0 0.1
2017-Oct-13 03:00N 04°27' W 002°29'0 0.1
2017-Oct-13 02:29N 04°27' W 002°29'0 0.2
2017-Oct-13 01:59N 04°27' W 002°29'0 0.2
2017-Oct-13 01:30N 04°27' W 002°29'0 0.2
2017-Oct-13 01:00N 04°27' W 002°29'0 0.2
2017-Oct-13 00:30N 04°27' W 002°29'0 0.2
2017-Oct-12 23:59N 04°27' W 002°29'0 0.2
2017-Oct-12 23:29N 04°27' W 002°29'0 0.2
2017-Oct-12 22:56N 04°28' W 002°29'0 0.3
2017-Oct-12 22:30N 04°28' W 002°30'0 0.3
2017-Oct-12 22:00N 04°28' W 002°30'0 0.1
2017-Oct-12 21:29N 04°28' W 002°30'0 0.1
2017-Oct-12 21:00N 04°28' W 002°30'0 0.0
2017-Oct-12 20:30N 04°28' W 002°30'0 0.0
2017-Oct-12 19:59N 04°28' W 002°30'0 0.1
2017-Oct-12 19:29N 04°28' W 002°30'0 0.2
2017-Oct-12 19:00N 04°28' W 002°30'0 0.1
2017-Oct-12 18:30N 04°28' W 002°30'0 0.2
2017-Oct-12 17:59N 04°28' W 002°30'0 0.1
2017-Oct-12 17:29N 04°28' W 002°30'0 0.0
2017-Oct-12 17:00N 04°28' W 002°30'0 0.1
2017-Oct-12 16:30N 04°28' W 002°30'0 0.1
2017-Oct-12 16:00N 04°28' W 002°30'0 0.1
2017-Oct-12 15:29N 04°28' W 002°30'0 0.2
2017-Oct-12 14:59N 04°27' W 002°30'0 0.1
2017-Oct-12 14:29N 04°27' W 002°30'0 0.1
2017-Oct-12 14:00N 04°27' W 002°30'0 0.1
2017-Oct-12 13:29N 04°27' W 002°30'0 0.3
2017-Oct-12 12:59N 04°27' W 002°30'0 0.1
2017-Oct-12 12:29N 04°27' W 002°30'0 0.0
2017-Oct-12 12:00N 04°28' W 002°30'0 0.1
2017-Oct-12 11:30N 04°28' W 002°30'0 0.2
2017-Oct-12 11:00N 04°28' W 002°30'0 0.2
2017-Oct-12 10:29N 04°28' W 002°30'0 0.0
2017-Oct-12 09:59N 04°28' W 002°30'0 0.1
2017-Oct-12 09:29N 04°28' W 002°30'0 0.2
2017-Oct-12 09:00N 04°28' W 002°30'0 0.5
2017-Oct-12 08:29N 04°28' W 002°30'0 0.5
2017-Oct-12 07:59N 04°28' W 002°30'0 0.6
2017-Oct-12 07:30N 04°28' W 002°31'0 0.6
2017-Oct-12 06:59N 04°28' W 002°31'0 0.7
2017-Oct-12 06:29N 04°28' W 002°31'0 0.3
2017-Oct-12 05:59N 04°28' W 002°31'0 0.0
2017-Oct-12 05:30N 04°28' W 002°31'0 0.1
2017-Oct-12 05:00N 04°28' W 002°31'0 0.0
2017-Oct-12 04:30N 04°28' W 002°31'0 0.0
2017-Oct-12 03:59N 04°28' W 002°31'0 0.0
2017-Oct-12 03:29N 04°28' W 002°31'0 0.0
2017-Oct-12 02:59N 04°28' W 002°31'0 0.1
2017-Oct-12 02:30N 04°28' W 002°31'0 0.1
2017-Oct-12 02:00N 04°28' W 002°31'0 0.1
2017-Oct-12 01:29N 04°28' W 002°31'0 0.1
2017-Oct-12 01:00N 04°28' W 002°31'0 0.1
2017-Oct-12 00:30N 04°28' W 002°31'0 0.2
2017-Oct-11 23:59N 04°28' W 002°32'0 0.1
2017-Oct-11 23:30N 04°28' W 002°32'0 0.0
2017-Oct-11 23:00N 04°28' W 002°32'0 0.3
2017-Oct-11 22:30N 04°28' W 002°32'0 0.1
2017-Oct-11 21:59N 04°28' W 002°32'0 0.2
2017-Oct-11 21:30N 04°28' W 002°32'0 0.2
2017-Oct-11 21:00N 04°28' W 002°32'0 0.0
2017-Oct-11 20:29N 04°28' W 002°32'0 0.3
2017-Oct-11 19:59N 04°28' W 002°32'0 0.0
2017-Oct-11 19:30N 04°28' W 002°32'0 0.1
2017-Oct-11 19:00N 04°28' W 002°32'0 0.3
2017-Oct-11 18:30N 04°28' W 002°32'0 0.1
2017-Oct-11 17:59N 04°28' W 002°32'1 2.1
2017-Oct-11 17:29N 04°29' W 002°32'1 1.4
2017-Oct-11 16:58N 04°30' W 002°32'2 0.1
2017-Oct-11 00:00N 04°29' W 002°34'0 0.1
2017-Oct-10 23:30N 04°29' W 002°34'0 0.3
2017-Oct-10 22:59N 04°29' W 002°34'0 0.4
2017-Oct-10 22:29N 04°29' W 002°35'0 0.3
2017-Oct-10 22:00N 04°29' W 002°35'0 0.3
2017-Oct-10 21:30N 04°29' W 002°35'0 0.0
2017-Oct-10 21:00N 04°29' W 002°35'0 0.2
2017-Oct-10 20:30N 04°29' W 002°35'0 0.2
2017-Oct-10 19:59N 04°29' W 002°35'0 0.4
2017-Oct-10 19:29N 04°29' W 002°35'0 0.2
2017-Oct-10 18:59N 04°29' W 002°34'0 0.0
2017-Oct-10 18:30N 04°29' W 002°34'0 0.3
2017-Oct-10 18:00N 04°29' W 002°34'0 0.3
2017-Oct-10 17:30N 04°29' W 002°34'0 0.1
2017-Oct-10 16:59N 04°29' W 002°34'0 0.2
2017-Oct-10 16:29N 04°29' W 002°34'0 0.1
2017-Oct-10 15:59N 04°29' W 002°34'0 0.2
2017-Oct-10 15:30N 04°29' W 002°34'0 0.2
2017-Oct-10 15:00N 04°29' W 002°34'0 0.2
2017-Oct-10 14:00N 04°29' W 002°34'0 0.2
2017-Oct-10 13:30N 04°29' W 002°34'0 0.2
2017-Oct-10 12:59N 04°29' W 002°34'0 0.1
2017-Oct-10 12:29N 04°29' W 002°34'0 0.0
2017-Oct-10 11:59N 04°29' W 002°34'0 0.3
2017-Oct-10 11:30N 04°29' W 002°34'0 0.3
2017-Oct-10 11:00N 04°29' W 002°34'0 0.2
2017-Oct-10 10:29N 04°29' W 002°34'0 0.1
2017-Oct-10 09:59N 04°29' W 002°34'0 0.0
2017-Oct-10 09:29N 04°29' W 002°34'0 0.2
2017-Oct-10 09:00N 04°29' W 002°34'0 0.1
2017-Oct-10 08:30N 04°29' W 002°34'1 1.5
2017-Oct-10 08:00N 04°28' W 002°34'0 0.5
2017-Oct-10 07:29N 04°28' W 002°33'0 0.2
2017-Oct-10 06:59N 04°28' W 002°33'0 0.4
2017-Oct-10 06:29N 04°28' W 002°34'0 0.4
2017-Oct-10 05:59N 04°28' W 002°34'0 0.0
2017-Oct-10 05:30N 04°28' W 002°34'0 0.5
2017-Oct-10 05:00N 04°28' W 002°34'1 2.2
2017-Oct-10 04:30N 04°30' W 002°34'0 0.2
2017-Oct-10 03:59N 04°30' W 002°34'0 0.1
2017-Oct-10 03:29N 04°29' W 002°34'0 0.0
2017-Oct-10 02:59N 04°29' W 002°34'0 0.1
2017-Oct-10 02:30N 04°30' W 002°34'0 0.1
2017-Oct-10 02:00N 04°30' W 002°34'0 0.3
2017-Oct-10 01:30N 04°30' W 002°34'0 0.4
2017-Oct-10 00:59N 04°30' W 002°34'0 0.4
2017-Oct-10 00:29N 04°30' W 002°34'0 0.3
2017-Oct-10 00:00N 04°30' W 002°35'0 0.2
2017-Oct-09 23:30N 04°30' W 002°35'0 0.1
2017-Oct-09 22:59N 04°30' W 002°35'0 0.1
2017-Oct-09 22:29N 04°30' W 002°35'0 0.2
2017-Oct-09 21:59N 04°30' W 002°35'0 0.1
2017-Oct-09 21:30N 04°30' W 002°35'0 0.1
2017-Oct-09 21:00N 04°30' W 002°35'0 0.1
2017-Oct-09 20:30N 04°30' W 002°35'0 0.1
2017-Oct-09 19:59N 04°30' W 002°35'0 0.1
2017-Oct-09 19:29N 04°30' W 002°35'0 0.1
2017-Oct-09 18:59N 04°30' W 002°35'0 0.1
2017-Oct-09 18:30N 04°30' W 002°35'0 0.0
2017-Oct-09 18:00N 04°30' W 002°35'0 0.0
2017-Oct-09 17:29N 04°30' W 002°35'0 0.2
2017-Oct-09 16:59N 04°30' W 002°35'0 0.3
2017-Oct-09 16:30N 04°29' W 002°35'0 0.2
2017-Oct-09 16:00N 04°29' W 002°35'  
Track history (hours):
 
Tides and Currents Weather Stations Pressure Air Temp Water Temp Dewpoint Dewpoint Depression Visibility Wind Speed Wind Dir Waves Ship Positions

Bourbon Peridot

Last reported at 2017-Oct-19 15:31 UTC. Time now 2017-Nov-22 03:42 UTC.
Position N 04°28' W 002°36'.
Warning: this ship's position is 33 days out of date.

Length 91 m; draft 5.8 m.

Type: Other ship. MMSI: 311000672.

Date/timePositionNaut miles runAvg speedWind from/ knotsBaromVisibWave heightAir tempDewpointWater temp
2017-Oct-19 15:31N 04°28' W 002°36'0 0.0
2017-Oct-19 15:29N 04°28' W 002°36'0 0.0
2017-Oct-19 15:00N 04°28' W 002°36'0 0.0
2017-Oct-19 14:30N 04°28' W 002°36'0 0.0
2017-Oct-19 14:00N 04°28' W 002°36'0 0.0
2017-Oct-19 13:30N 04°28' W 002°36'0 0.0
2017-Oct-19 12:59N 04°28' W 002°36'0 0.1
2017-Oct-19 12:29N 04°29' W 002°36'0 0.0
2017-Oct-19 12:00N 04°29' W 002°36'1 2.7
2017-Oct-19 11:29N 04°28' W 002°35'  
2017-Oct-17 00:24N 04°30' W 002°09'13 8.6
2017-Oct-16 22:53N 04°30' W 001°56'3 8.6
2017-Oct-16 22:30N 04°30' W 001°53'4 8.6
2017-Oct-16 22:00N 04°30' W 001°48'4 8.4
2017-Oct-16 21:30N 04°31' W 001°44'4 8.6
2017-Oct-16 20:59N 04°34' W 001°41'4 8.7
2017-Oct-16 20:29N 04°38' W 001°40'4 8.9
2017-Oct-16 19:59N 04°43' W 001°39'4 8.9
2017-Oct-16 19:30N 04°47' W 001°39'4 8.9
2017-Oct-16 19:00N 04°51' W 001°39'4 8.6
2017-Oct-16 18:30N 04°56' W 001°40'2 3.8
2017-Oct-16 17:59N 04°56' W 001°42'0 0.1
2017-Oct-16 17:28N 04°56' W 001°42'0 0.0
2017-Oct-16 16:58N 04°56' W 001°42'0 0.0
2017-Oct-16 16:28N 04°56' W 001°42'0 0.0
2017-Oct-16 15:58N 04°56' W 001°42'0 0.0
2017-Oct-16 15:28N 04°56' W 001°42'0 0.0
2017-Oct-16 14:58N 04°56' W 001°42'0 0.0
2017-Oct-16 13:58N 04°56' W 001°42'0 0.0
2017-Oct-16 13:25N 04°56' W 001°42'0 0.0
2017-Oct-16 12:55N 04°56' W 001°42'0 0.0
2017-Oct-16 12:28N 04°56' W 001°42'0 0.0
2017-Oct-16 11:58N 04°56' W 001°42'0 0.0
2017-Oct-16 11:28N 04°56' W 001°42'0 0.0
2017-Oct-16 10:58N 04°56' W 001°42'0 0.0
2017-Oct-16 10:28N 04°56' W 001°42'0 0.0
2017-Oct-16 09:58N 04°56' W 001°42'0 0.0
2017-Oct-16 09:28N 04°56' W 001°42'0 0.0
2017-Oct-16 08:58N 04°56' W 001°42'31 1.0
2017-Oct-15 01:38N 04°30' W 001°59'2 9.8
2017-Oct-15 01:29N 04°30' W 002°00'5 9.7
2017-Oct-15 00:59N 04°30' W 002°05'5 9.6
2017-Oct-15 00:29N 04°30' W 002°10'4 8.2
2017-Oct-15 00:00N 04°29' W 002°14'4 7.1
2017-Oct-14 23:30N 04°29' W 002°17'5 9.3
2017-Oct-14 22:59N 04°30' W 002°22'4 8.7
2017-Oct-14 22:29N 04°30' W 002°26'510.0
2017-Oct-14 22:00N 04°27' W 002°31'4 7.9
2017-Oct-14 21:30N 04°28' W 002°34'1 1.8
2017-Oct-14 20:59N 04°29' W 002°35'0 0.1
2017-Oct-14 20:29N 04°29' W 002°35'0 0.0
2017-Oct-14 19:59N 04°29' W 002°35'0 0.3
2017-Oct-14 19:30N 04°29' W 002°35'0 0.3
2017-Oct-14 19:00N 04°29' W 002°35'0 0.3
2017-Oct-14 18:30N 04°29' W 002°34'0 0.2
2017-Oct-14 17:59N 04°29' W 002°34'0 0.0
2017-Oct-14 17:29N 04°29' W 002°34'0 0.2
2017-Oct-14 16:59N 04°29' W 002°34'0 0.5
2017-Oct-14 16:28N 04°29' W 002°34'1 1.9
2017-Oct-14 16:00N 04°28' W 002°33'0 0.3
2017-Oct-14 15:30N 04°28' W 002°33'0 0.1
2017-Oct-14 15:00N 04°28' W 002°33'0 0.4
2017-Oct-14 14:29N 04°28' W 002°33'0 0.3
2017-Oct-14 13:59N 04°28' W 002°34'1 1.2
2017-Oct-14 13:30N 04°27' W 002°34'0 0.0
2017-Oct-14 13:00N 04°27' W 002°34'0 0.0
2017-Oct-14 12:29N 04°27' W 002°34'0 0.4
2017-Oct-14 11:59N 04°27' W 002°34'0 0.2
2017-Oct-14 11:29N 04°27' W 002°33'0 0.1
2017-Oct-14 11:00N 04°27' W 002°33'0 0.2
2017-Oct-14 10:30N 04°27' W 002°33'0 0.2
2017-Oct-14 09:59N 04°27' W 002°33'0 0.3
2017-Oct-14 09:29N 04°27' W 002°33'0 0.2
2017-Oct-14 08:59N 04°27' W 002°33'1 1.3
2017-Oct-14 08:30N 04°27' W 002°33'1 1.5
2017-Oct-14 08:00N 04°28' W 002°33'0 0.0
2017-Oct-14 07:29N 04°28' W 002°33'0 0.3
2017-Oct-14 06:59N 04°28' W 002°33'0 0.3
2017-Oct-14 06:29N 04°28' W 002°33'0 0.3
2017-Oct-14 06:00N 04°28' W 002°33'0 0.1
2017-Oct-14 05:30N 04°28' W 002°33'1 1.5
2017-Oct-14 05:00N 04°29' W 002°33'2 4.1
2017-Oct-14 04:29N 04°28' W 002°35'0 0.1
2017-Oct-14 03:59N 04°28' W 002°35'0 0.1
2017-Oct-14 03:30N 04°28' W 002°35'0 0.1
2017-Oct-14 03:00N 04°28' W 002°35'0 0.2
2017-Oct-14 02:29N 04°28' W 002°34'0 0.2
2017-Oct-14 02:00N 04°28' W 002°34'0 0.1
2017-Oct-14 01:30N 04°28' W 002°34'0 0.1
2017-Oct-14 01:00N 04°28' W 002°34'0 0.1
2017-Oct-14 00:29N 04°28' W 002°34'0 0.0
2017-Oct-13 23:59N 04°28' W 002°34'0 0.1
2017-Oct-13 23:30N 04°28' W 002°34'0 0.0
2017-Oct-13 22:59N 04°28' W 002°34'0 0.5
2017-Oct-13 22:29N 04°28' W 002°34'0 0.8
2017-Oct-13 21:59N 04°29' W 002°34'0 0.0
2017-Oct-13 21:30N 04°29' W 002°34'0 0.1
2017-Oct-13 20:59N 04°29' W 002°34'0 0.1
2017-Oct-13 20:29N 04°29' W 002°34'0 0.3
2017-Oct-13 19:59N 04°29' W 002°34'0 0.2
2017-Oct-13 19:30N 04°29' W 002°34'0 0.0
2017-Oct-13 19:00N 04°29' W 002°34'0 0.1
2017-Oct-13 18:30N 04°29' W 002°34'0 0.1
2017-Oct-13 18:00N 04°29' W 002°34'0 0.1
2017-Oct-13 17:29N 04°29' W 002°34'2 3.1
2017-Oct-13 16:59N 04°27' W 002°33'1 2.0
2017-Oct-13 16:30N 04°26' W 002°33'0 0.0
2017-Oct-13 15:59N 04°26' W 002°33'0 0.0
2017-Oct-13 15:29N 04°26' W 002°33'0 0.0
2017-Oct-13 14:59N 04°26' W 002°33'0 0.0
2017-Oct-13 14:30N 04°26' W 002°33'0 0.1
2017-Oct-13 14:00N 04°26' W 002°33'2 3.1
2017-Oct-13 13:30N 04°28' W 002°32'1 2.9
2017-Oct-13 12:59N 04°29' W 002°32'1 1.8
2017-Oct-13 12:29N 04°30' W 002°32'0 0.0
2017-Oct-13 12:00N 04°30' W 002°32'0 0.1
2017-Oct-13 11:30N 04°30' W 002°32'0 0.0
2017-Oct-13 10:59N 04°30' W 002°32'0 0.1
2017-Oct-13 10:29N 04°30' W 002°32'0 0.3
2017-Oct-13 09:59N 04°30' W 002°31'0 0.1
2017-Oct-13 09:30N 04°30' W 002°31'0 0.1
2017-Oct-13 09:00N 04°30' W 002°31'0 0.2
2017-Oct-13 08:29N 04°29' W 002°31'0 0.1
2017-Oct-13 07:59N 04°29' W 002°31'0 0.1
2017-Oct-13 07:30N 04°29' W 002°31'2 3.8
2017-Oct-13 07:00N 04°29' W 002°30'1 2.8
2017-Oct-13 06:29N 04°28' W 002°29'0 0.1
2017-Oct-13 05:59N 04°27' W 002°29'0 0.2
2017-Oct-13 05:30N 04°28' W 002°29'0 0.1
2017-Oct-13 05:00N 04°28' W 002°29'0 0.2
2017-Oct-13 04:30N 04°27' W 002°29'0 0.2
2017-Oct-13 03:59N 04°27' W 002°29'0 0.3
2017-Oct-13 03:30N 04°27' W 002°29'0 0.1
2017-Oct-13 03:00N 04°27' W 002°29'0 0.1
2017-Oct-13 02:29N 04°27' W 002°29'0 0.2
2017-Oct-13 01:59N 04°27' W 002°29'0 0.2
2017-Oct-13 01:30N 04°27' W 002°29'0 0.2
2017-Oct-13 01:00N 04°27' W 002°29'0 0.2
2017-Oct-13 00:30N 04°27' W 002°29'0 0.2
2017-Oct-12 23:59N 04°27' W 002°29'0 0.2
2017-Oct-12 23:29N 04°27' W 002°29'0 0.2
2017-Oct-12 22:56N 04°28' W 002°29'0 0.3
2017-Oct-12 22:30N 04°28' W 002°30'0 0.3
2017-Oct-12 22:00N 04°28' W 002°30'0 0.1
2017-Oct-12 21:29N 04°28' W 002°30'0 0.1
2017-Oct-12 21:00N 04°28' W 002°30'0 0.0
2017-Oct-12 20:30N 04°28' W 002°30'0 0.0
2017-Oct-12 19:59N 04°28' W 002°30'0 0.1
2017-Oct-12 19:29N 04°28' W 002°30'0 0.2
2017-Oct-12 19:00N 04°28' W 002°30'0 0.1
2017-Oct-12 18:30N 04°28' W 002°30'0 0.2
2017-Oct-12 17:59N 04°28' W 002°30'0 0.1
2017-Oct-12 17:29N 04°28' W 002°30'0 0.0
2017-Oct-12 17:00N 04°28' W 002°30'0 0.1
2017-Oct-12 16:30N 04°28' W 002°30'0 0.1
2017-Oct-12 16:00N 04°28' W 002°30'0 0.1
2017-Oct-12 15:29N 04°28' W 002°30'0 0.2
2017-Oct-12 14:59N 04°27' W 002°30'0 0.1
2017-Oct-12 14:29N 04°27' W 002°30'0 0.1
2017-Oct-12 14:00N 04°27' W 002°30'0 0.1
2017-Oct-12 13:29N 04°27' W 002°30'0 0.3
2017-Oct-12 12:59N 04°27' W 002°30'0 0.1
2017-Oct-12 12:29N 04°27' W 002°30'0 0.0
2017-Oct-12 12:00N 04°28' W 002°30'0 0.1
2017-Oct-12 11:30N 04°28' W 002°30'0 0.2
2017-Oct-12 11:00N 04°28' W 002°30'0 0.2
2017-Oct-12 10:29N 04°28' W 002°30'0 0.0
2017-Oct-12 09:59N 04°28' W 002°30'0 0.1
2017-Oct-12 09:29N 04°28' W 002°30'0 0.2
2017-Oct-12 09:00N 04°28' W 002°30'0 0.5
2017-Oct-12 08:29N 04°28' W 002°30'0 0.5
2017-Oct-12 07:59N 04°28' W 002°30'0 0.6
2017-Oct-12 07:30N 04°28' W 002°31'0 0.6
2017-Oct-12 06:59N 04°28' W 002°31'0 0.7
2017-Oct-12 06:29N 04°28' W 002°31'0 0.3
2017-Oct-12 05:59N 04°28' W 002°31'0 0.0
2017-Oct-12 05:30N 04°28' W 002°31'0 0.1
2017-Oct-12 05:00N 04°28' W 002°31'0 0.0
2017-Oct-12 04:30N 04°28' W 002°31'0 0.0
2017-Oct-12 03:59N 04°28' W 002°31'0 0.0
2017-Oct-12 03:29N 04°28' W 002°31'0 0.0
2017-Oct-12 02:59N 04°28' W 002°31'0 0.1
2017-Oct-12 02:30N 04°28' W 002°31'0 0.1
2017-Oct-12 02:00N 04°28' W 002°31'0 0.1
2017-Oct-12 01:29N 04°28' W 002°31'0 0.1
2017-Oct-12 01:00N 04°28' W 002°31'0 0.1
2017-Oct-12 00:30N 04°28' W 002°31'0 0.2
2017-Oct-11 23:59N 04°28' W 002°32'0 0.1
2017-Oct-11 23:30N 04°28' W 002°32'0 0.0
2017-Oct-11 23:00N 04°28' W 002°32'0 0.3
2017-Oct-11 22:30N 04°28' W 002°32'0 0.1
2017-Oct-11 21:59N 04°28' W 002°32'0 0.2
2017-Oct-11 21:30N 04°28' W 002°32'0 0.2
2017-Oct-11 21:00N 04°28' W 002°32'0 0.0
2017-Oct-11 20:29N 04°28' W 002°32'0 0.3
2017-Oct-11 19:59N 04°28' W 002°32'0 0.0
2017-Oct-11 19:30N 04°28' W 002°32'0 0.1
2017-Oct-11 19:00N 04°28' W 002°32'0 0.3
2017-Oct-11 18:30N 04°28' W 002°32'0 0.1
2017-Oct-11 17:59N 04°28' W 002°32'1 2.1
2017-Oct-11 17:29N 04°29' W 002°32'1 1.4
2017-Oct-11 16:58N 04°30' W 002°32'2 0.1
2017-Oct-11 00:00N 04°29' W 002°34'0 0.1
2017-Oct-10 23:30N 04°29' W 002°34'0 0.3
2017-Oct-10 22:59N 04°29' W 002°34'0 0.4
2017-Oct-10 22:29N 04°29' W 002°35'0 0.3
2017-Oct-10 22:00N 04°29' W 002°35'0 0.3
2017-Oct-10 21:30N 04°29' W 002°35'0 0.0
2017-Oct-10 21:00N 04°29' W 002°35'0 0.2
2017-Oct-10 20:30N 04°29' W 002°35'0 0.2
2017-Oct-10 19:59N 04°29' W 002°35'0 0.4
2017-Oct-10 19:29N 04°29' W 002°35'0 0.2
2017-Oct-10 18:59N 04°29' W 002°34'0 0.0
2017-Oct-10 18:30N 04°29' W 002°34'0 0.3
2017-Oct-10 18:00N 04°29' W 002°34'0 0.3
2017-Oct-10 17:30N 04°29' W 002°34'0 0.1
2017-Oct-10 16:59N 04°29' W 002°34'0 0.2
2017-Oct-10 16:29N 04°29' W 002°34'0 0.1
2017-Oct-10 15:59N 04°29' W 002°34'0 0.2
2017-Oct-10 15:30N 04°29' W 002°34'0 0.2
2017-Oct-10 15:00N 04°29' W 002°34'0 0.2
2017-Oct-10 14:00N 04°29' W 002°34'0 0.2
2017-Oct-10 13:30N 04°29' W 002°34'0 0.2
2017-Oct-10 12:59N 04°29' W 002°34'0 0.1
2017-Oct-10 12:29N 04°29' W 002°34'0 0.0
2017-Oct-10 11:59N 04°29' W 002°34'0 0.3
2017-Oct-10 11:30N 04°29' W 002°34'0 0.3
2017-Oct-10 11:00N 04°29' W 002°34'0 0.2
2017-Oct-10 10:29N 04°29' W 002°34'0 0.1
2017-Oct-10 09:59N 04°29' W 002°34'0 0.0
2017-Oct-10 09:29N 04°29' W 002°34'0 0.2
2017-Oct-10 09:00N 04°29' W 002°34'0 0.1
2017-Oct-10 08:30N 04°29' W 002°34'1 1.5
2017-Oct-10 08:00N 04°28' W 002°34'0 0.5
2017-Oct-10 07:29N 04°28' W 002°33'0 0.2
2017-Oct-10 06:59N 04°28' W 002°33'0 0.4
2017-Oct-10 06:29N 04°28' W 002°34'0 0.4
2017-Oct-10 05:59N 04°28' W 002°34'0 0.0
2017-Oct-10 05:30N 04°28' W 002°34'0 0.5
2017-Oct-10 05:00N 04°28' W 002°34'1 2.2
2017-Oct-10 04:30N 04°30' W 002°34'0 0.2
2017-Oct-10 03:59N 04°30' W 002°34'0 0.1
2017-Oct-10 03:29N 04°29' W 002°34'0 0.0
2017-Oct-10 02:59N 04°29' W 002°34'0 0.1
2017-Oct-10 02:30N 04°30' W 002°34'0 0.1
2017-Oct-10 02:00N 04°30' W 002°34'0 0.3
2017-Oct-10 01:30N 04°30' W 002°34'0 0.4
2017-Oct-10 00:59N 04°30' W 002°34'0 0.4
2017-Oct-10 00:29N 04°30' W 002°34'0 0.3
2017-Oct-10 00:00N 04°30' W 002°35'0 0.2
2017-Oct-09 23:30N 04°30' W 002°35'0 0.1
2017-Oct-09 22:59N 04°30' W 002°35'0 0.1
2017-Oct-09 22:29N 04°30' W 002°35'0 0.2
2017-Oct-09 21:59N 04°30' W 002°35'0 0.1
2017-Oct-09 21:30N 04°30' W 002°35'0 0.1
2017-Oct-09 21:00N 04°30' W 002°35'0 0.1
2017-Oct-09 20:30N 04°30' W 002°35'0 0.1
2017-Oct-09 19:59N 04°30' W 002°35'0 0.1
2017-Oct-09 19:29N 04°30' W 002°35'0 0.1
2017-Oct-09 18:59N 04°30' W 002°35'0 0.1
2017-Oct-09 18:30N 04°30' W 002°35'0 0.0
2017-Oct-09 18:00N 04°30' W 002°35'0 0.0
2017-Oct-09 17:29N 04°30' W 002°35'0 0.2
2017-Oct-09 16:59N 04°30' W 002°35'0 0.3
2017-Oct-09 16:30N 04°29' W 002°35'0 0.2
2017-Oct-09 16:00N 04°29' W 002°35'  

Dump ship's entire track history